sensor_id;sensor_type;location;lat;lon;timestamp;P1;durP1;ratioP1;P2;durP2;ratioP2
1829;SDS011;914;48.118;11.600;2023-02-28T00:02:16;2.80;;;2.50;;
1829;SDS011;914;48.118;11.600;2023-02-28T00:04:44;4.33;;;3.00;;
1829;SDS011;914;48.118;11.600;2023-02-28T00:07:11;3.00;;;2.70;;
1829;SDS011;914;48.118;11.600;2023-02-28T00:09:36;4.97;;;2.93;;
1829;SDS011;914;48.118;11.600;2023-02-28T00:12:02;3.97;;;2.40;;
1829;SDS011;914;48.118;11.600;2023-02-28T00:14:35;6.27;;;2.67;;
1829;SDS011;914;48.118;11.600;2023-02-28T00:17:01;8.27;;;2.70;;
1829;SDS011;914;48.118;11.600;2023-02-28T00:19:27;3.70;;;2.77;;
1829;SDS011;914;48.118;11.600;2023-02-28T00:21:53;7.77;;;3.13;;
1829;SDS011;914;48.118;11.600;2023-02-28T00:24:18;3.00;;;2.70;;
1829;SDS011;914;48.118;11.600;2023-02-28T00:26:44;5.47;;;2.90;;
1829;SDS011;914;48.118;11.600;2023-02-28T00:29:10;3.40;;;2.90;;
1829;SDS011;914;48.118;11.600;2023-02-28T00:31:35;3.33;;;2.90;;
1829;SDS011;914;48.118;11.600;2023-02-28T00:34:01;6.33;;;2.77;;
1829;SDS011;914;48.118;11.600;2023-02-28T00:36:27;4.60;;;2.87;;
1829;SDS011;914;48.118;11.600;2023-02-28T00:38:52;3.53;;;2.90;;
1829;SDS011;914;48.118;11.600;2023-02-28T00:41:18;4.10;;;3.27;;
1829;SDS011;914;48.118;11.600;2023-02-28T00:43:44;4.57;;;3.20;;
1829;SDS011;914;48.118;11.600;2023-02-28T00:46:10;3.60;;;2.90;;
1829;SDS011;914;48.118;11.600;2023-02-28T00:48:36;3.90;;;3.00;;
1829;SDS011;914;48.118;11.600;2023-02-28T00:51:01;4.33;;;3.00;;
1829;SDS011;914;48.118;11.600;2023-02-28T00:53:27;4.00;;;2.90;;
1829;SDS011;914;48.118;11.600;2023-02-28T00:55:53;6.30;;;3.17;;
1829;SDS011;914;48.118;11.600;2023-02-28T00:58:19;3.83;;;3.30;;
1829;SDS011;914;48.118;11.600;2023-02-28T01:00:45;3.10;;;2.80;;
1829;SDS011;914;48.118;11.600;2023-02-28T01:03:14;4.20;;;3.00;;
1829;SDS011;914;48.118;11.600;2023-02-28T01:05:41;3.50;;;2.83;;
1829;SDS011;914;48.118;11.600;2023-02-28T01:08:07;3.40;;;2.97;;
1829;SDS011;914;48.118;11.600;2023-02-28T01:10:33;7.20;;;3.10;;
1829;SDS011;914;48.118;11.600;2023-02-28T01:12:59;6.50;;;3.00;;
1829;SDS011;914;48.118;11.600;2023-02-28T01:15:24;4.70;;;3.60;;
1829;SDS011;914;48.118;11.600;2023-02-28T01:17:50;3.87;;;3.10;;
1829;SDS011;914;48.118;11.600;2023-02-28T01:20:16;3.20;;;2.93;;
1829;SDS011;914;48.118;11.600;2023-02-28T01:22:42;3.77;;;3.07;;
1829;SDS011;914;48.118;11.600;2023-02-28T01:25:07;3.70;;;3.17;;
1829;SDS011;914;48.118;11.600;2023-02-28T01:27:33;3.80;;;3.30;;
1829;SDS011;914;48.118;11.600;2023-02-28T01:29:59;3.43;;;3.13;;
1829;SDS011;914;48.118;11.600;2023-02-28T01:32:24;3.87;;;2.90;;
1829;SDS011;914;48.118;11.600;2023-02-28T01:34:50;4.63;;;3.37;;
1829;SDS011;914;48.118;11.600;2023-02-28T01:37:16;3.90;;;3.20;;
1829;SDS011;914;48.118;11.600;2023-02-28T01:39:41;3.57;;;2.97;;
1829;SDS011;914;48.118;11.600;2023-02-28T01:42:08;3.90;;;3.30;;
1829;SDS011;914;48.118;11.600;2023-02-28T01:47:38;9.90;;;3.20;;
1829;SDS011;914;48.118;11.600;2023-02-28T01:50:09;4.23;;;3.07;;
1829;SDS011;914;48.118;11.600;2023-02-28T01:52:41;5.33;;;3.57;;
1829;SDS011;914;48.118;11.600;2023-02-28T01:55:08;5.40;;;3.40;;
1829;SDS011;914;48.118;11.600;2023-02-28T01:57:46;3.97;;;3.33;;
1829;SDS011;914;48.118;11.600;2023-02-28T02:00:17;5.47;;;3.23;;
1829;SDS011;914;48.118;11.600;2023-02-28T02:02:48;3.57;;;2.97;;
1829;SDS011;914;48.118;11.600;2023-02-28T02:05:20;7.77;;;3.13;;
1829;SDS011;914;48.118;11.600;2023-02-28T02:07:54;4.67;;;3.23;;
1829;SDS011;914;48.118;11.600;2023-02-28T02:10:27;6.30;;;3.20;;
1829;SDS011;914;48.118;11.600;2023-02-28T02:15:40;4.77;;;3.50;;
1829;SDS011;914;48.118;11.600;2023-02-28T02:18:19;6.80;;;3.50;;
1829;SDS011;914;48.118;11.600;2023-02-28T02:27:04;4.67;;;3.23;;
1829;SDS011;914;48.118;11.600;2023-02-28T02:32:35;4.17;;;3.10;;
1829;SDS011;914;48.118;11.600;2023-02-28T02:38:05;4.87;;;3.63;;
1829;SDS011;914;48.118;11.600;2023-02-28T02:41:08;5.43;;;3.30;;
1829;SDS011;914;48.118;11.600;2023-02-28T02:43:48;3.90;;;3.50;;
1829;SDS011;914;48.118;11.600;2023-02-28T02:46:29;3.40;;;3.07;;
1829;SDS011;914;48.118;11.600;2023-02-28T02:49:00;4.63;;;3.83;;
1829;SDS011;914;48.118;11.600;2023-02-28T02:51:31;6.03;;;3.53;;
1829;SDS011;914;48.118;11.600;2023-02-28T02:54:04;3.33;;;2.97;;
1829;SDS011;914;48.118;11.600;2023-02-28T02:56:31;4.47;;;3.50;;
1829;SDS011;914;48.118;11.600;2023-02-28T02:59:00;6.23;;;4.20;;
1829;SDS011;914;48.118;11.600;2023-02-28T03:01:32;7.90;;;3.73;;
1829;SDS011;914;48.118;11.600;2023-02-28T03:04:04;5.17;;;3.77;;
1829;SDS011;914;48.118;11.600;2023-02-28T03:06:33;5.03;;;3.93;;
1829;SDS011;914;48.118;11.600;2023-02-28T03:09:00;5.40;;;3.43;;
1829;SDS011;914;48.118;11.600;2023-02-28T03:11:26;5.47;;;3.60;;
1829;SDS011;914;48.118;11.600;2023-02-28T03:24:33;5.17;;;3.60;;
1829;SDS011;914;48.118;11.600;2023-02-28T03:27:21;5.27;;;3.90;;
1829;SDS011;914;48.118;11.600;2023-02-28T03:30:14;4.53;;;3.60;;
1829;SDS011;914;48.118;11.600;2023-02-28T03:32:55;4.53;;;3.90;;
1829;SDS011;914;48.118;11.600;2023-02-28T03:35:32;4.50;;;3.83;;
1829;SDS011;914;48.118;11.600;2023-02-28T03:38:13;6.03;;;4.00;;
1829;SDS011;914;48.118;11.600;2023-02-28T03:41:16;4.70;;;3.83;;
1829;SDS011;914;48.118;11.600;2023-02-28T03:43:48;6.53;;;4.57;;
1829;SDS011;914;48.118;11.600;2023-02-28T03:46:19;6.57;;;4.13;;
1829;SDS011;914;48.118;11.600;2023-02-28T03:48:51;6.47;;;4.30;;
1829;SDS011;914;48.118;11.600;2023-02-28T03:51:32;6.83;;;4.87;;
1829;SDS011;914;48.118;11.600;2023-02-28T03:54:04;6.53;;;4.93;;
1829;SDS011;914;48.118;11.600;2023-02-28T03:56:36;6.67;;;4.77;;
1829;SDS011;914;48.118;11.600;2023-02-28T03:59:05;5.37;;;4.60;;
1829;SDS011;914;48.118;11.600;2023-02-28T04:01:39;6.37;;;4.70;;
1829;SDS011;914;48.118;11.600;2023-02-28T04:04:08;8.00;;;5.07;;
1829;SDS011;914;48.118;11.600;2023-02-28T04:06:34;6.33;;;4.47;;
1829;SDS011;914;48.118;11.600;2023-02-28T04:09:01;6.10;;;4.57;;
1829;SDS011;914;48.118;11.600;2023-02-28T04:11:39;7.03;;;5.27;;
1829;SDS011;914;48.118;11.600;2023-02-28T04:14:07;6.20;;;4.60;;
1829;SDS011;914;48.118;11.600;2023-02-28T04:16:34;7.87;;;5.13;;
1829;SDS011;914;48.118;11.600;2023-02-28T04:19:02;6.43;;;5.00;;
1829;SDS011;914;48.118;11.600;2023-02-28T04:21:34;5.80;;;4.90;;
1829;SDS011;914;48.118;11.600;2023-02-28T04:24:02;6.47;;;5.00;;
1829;SDS011;914;48.118;11.600;2023-02-28T04:26:32;6.47;;;5.40;;
1829;SDS011;914;48.118;11.600;2023-02-28T04:28:59;6.47;;;5.23;;
1829;SDS011;914;48.118;11.600;2023-02-28T04:31:25;8.50;;;5.50;;
1829;SDS011;914;48.118;11.600;2023-02-28T04:33:51;7.23;;;5.80;;
1829;SDS011;914;48.118;11.600;2023-02-28T04:36:17;7.07;;;5.43;;
1829;SDS011;914;48.118;11.600;2023-02-28T04:38:43;8.20;;;5.93;;
1829;SDS011;914;48.118;11.600;2023-02-28T04:41:10;10.10;;;5.50;;
1829;SDS011;914;48.118;11.600;2023-02-28T04:43:36;7.97;;;5.63;;
1829;SDS011;914;48.118;11.600;2023-02-28T04:46:02;10.97;;;6.37;;
1829;SDS011;914;48.118;11.600;2023-02-28T04:48:30;17.63;;;6.27;;
1829;SDS011;914;48.118;11.600;2023-02-28T04:51:00;8.67;;;6.33;;
1829;SDS011;914;48.118;11.600;2023-02-28T04:53:27;6.47;;;5.70;;
1829;SDS011;914;48.118;11.600;2023-02-28T04:55:54;8.30;;;6.30;;
1829;SDS011;914;48.118;11.600;2023-02-28T04:58:20;9.03;;;6.40;;
1829;SDS011;914;48.118;11.600;2023-02-28T05:00:50;10.13;;;6.43;;
1829;SDS011;914;48.118;11.600;2023-02-28T05:03:20;9.30;;;6.30;;
1829;SDS011;914;48.118;11.600;2023-02-28T05:05:47;9.40;;;6.97;;
1829;SDS011;914;48.118;11.600;2023-02-28T05:08:12;8.27;;;6.47;;
1829;SDS011;914;48.118;11.600;2023-02-28T05:10:38;10.67;;;6.97;;
1829;SDS011;914;48.118;11.600;2023-02-28T05:13:04;10.13;;;7.17;;
1829;SDS011;914;48.118;11.600;2023-02-28T05:15:30;11.50;;;7.57;;
1829;SDS011;914;48.118;11.600;2023-02-28T05:17:56;9.80;;;6.47;;
1829;SDS011;914;48.118;11.600;2023-02-28T05:20:22;9.90;;;7.43;;
1829;SDS011;914;48.118;11.600;2023-02-28T05:22:47;15.97;;;8.03;;
1829;SDS011;914;48.118;11.600;2023-02-28T05:25:18;8.13;;;6.67;;
1829;SDS011;914;48.118;11.600;2023-02-28T05:27:46;10.57;;;7.40;;
1829;SDS011;914;48.118;11.600;2023-02-28T05:30:12;11.87;;;7.50;;
1829;SDS011;914;48.118;11.600;2023-02-28T05:32:38;12.07;;;7.43;;
1829;SDS011;914;48.118;11.600;2023-02-28T05:35:09;13.17;;;7.93;;
1829;SDS011;914;48.118;11.600;2023-02-28T05:37:36;14.43;;;8.37;;
1829;SDS011;914;48.118;11.600;2023-02-28T05:40:03;12.40;;;8.10;;
1829;SDS011;914;48.118;11.600;2023-02-28T05:42:36;11.07;;;8.43;;
1829;SDS011;914;48.118;11.600;2023-02-28T05:45:03;12.93;;;8.17;;
1829;SDS011;914;48.118;11.600;2023-02-28T05:47:29;14.83;;;8.17;;
1829;SDS011;914;48.118;11.600;2023-02-28T05:49:56;10.63;;;7.87;;
1829;SDS011;914;48.118;11.600;2023-02-28T05:52:22;11.90;;;8.40;;
1829;SDS011;914;48.118;11.600;2023-02-28T05:54:48;10.57;;;7.30;;
1829;SDS011;914;48.118;11.600;2023-02-28T05:57:14;12.60;;;8.60;;
1829;SDS011;914;48.118;11.600;2023-02-28T05:59:40;14.53;;;9.00;;
1829;SDS011;914;48.118;11.600;2023-02-28T06:02:06;12.00;;;8.27;;
1829;SDS011;914;48.118;11.600;2023-02-28T06:04:36;12.67;;;9.37;;
1829;SDS011;914;48.118;11.600;2023-02-28T06:07:02;14.73;;;9.33;;
1829;SDS011;914;48.118;11.600;2023-02-28T06:09:28;12.90;;;9.37;;
1829;SDS011;914;48.118;11.600;2023-02-28T06:11:54;13.73;;;8.80;;
1829;SDS011;914;48.118;11.600;2023-02-28T06:14:22;14.93;;;10.10;;
1829;SDS011;914;48.118;11.600;2023-02-28T06:16:47;12.70;;;9.70;;
1829;SDS011;914;48.118;11.600;2023-02-28T06:19:13;14.43;;;10.67;;
1829;SDS011;914;48.118;11.600;2023-02-28T06:21:40;12.90;;;9.80;;
1829;SDS011;914;48.118;11.600;2023-02-28T06:24:06;12.57;;;9.47;;
1829;SDS011;914;48.118;11.600;2023-02-28T06:26:31;15.33;;;9.90;;
1829;SDS011;914;48.118;11.600;2023-02-28T06:28:57;13.17;;;9.50;;
1829;SDS011;914;48.118;11.600;2023-02-28T06:31:23;12.93;;;9.70;;
1829;SDS011;914;48.118;11.600;2023-02-28T06:33:51;13.63;;;9.57;;
1829;SDS011;914;48.118;11.600;2023-02-28T06:36:17;12.93;;;10.27;;
1829;SDS011;914;48.118;11.600;2023-02-28T06:38:43;14.00;;;10.47;;
1829;SDS011;914;48.118;11.600;2023-02-28T06:41:10;16.53;;;10.67;;
1829;SDS011;914;48.118;11.600;2023-02-28T06:43:37;13.97;;;10.50;;
1829;SDS011;914;48.118;11.600;2023-02-28T06:46:05;18.73;;;11.07;;
1829;SDS011;914;48.118;11.600;2023-02-28T06:48:33;13.43;;;10.67;;
1829;SDS011;914;48.118;11.600;2023-02-28T06:51:06;16.07;;;9.70;;
1829;SDS011;914;48.118;11.600;2023-02-28T06:53:36;18.27;;;10.90;;
1829;SDS011;914;48.118;11.600;2023-02-28T06:56:12;14.70;;;10.57;;
1829;SDS011;914;48.118;11.600;2023-02-28T06:58:38;13.30;;;9.97;;
1829;SDS011;914;48.118;11.600;2023-02-28T07:01:06;17.47;;;10.67;;
1829;SDS011;914;48.118;11.600;2023-02-28T07:03:34;13.93;;;10.33;;
1829;SDS011;914;48.118;11.600;2023-02-28T07:06:00;13.27;;;9.40;;
1829;SDS011;914;48.118;11.600;2023-02-28T07:08:26;11.10;;;8.50;;
1829;SDS011;914;48.118;11.600;2023-02-28T07:10:55;16.23;;;10.43;;
1829;SDS011;914;48.118;11.600;2023-02-28T07:13:21;14.27;;;9.23;;
1829;SDS011;914;48.118;11.600;2023-02-28T07:15:57;15.67;;;10.80;;
1829;SDS011;914;48.118;11.600;2023-02-28T07:18:24;16.13;;;10.03;;
1829;SDS011;914;48.118;11.600;2023-02-28T07:20:51;14.07;;;11.13;;
1829;SDS011;914;48.118;11.600;2023-02-28T07:23:17;13.73;;;10.90;;
1829;SDS011;914;48.118;11.600;2023-02-28T07:25:43;13.73;;;9.47;;
1829;SDS011;914;48.118;11.600;2023-02-28T07:28:10;14.13;;;10.40;;
1829;SDS011;914;48.118;11.600;2023-02-28T07:30:36;18.07;;;11.00;;
1829;SDS011;914;48.118;11.600;2023-02-28T07:33:02;17.93;;;10.87;;
1829;SDS011;914;48.118;11.600;2023-02-28T07:35:29;15.80;;;10.53;;
1829;SDS011;914;48.118;11.600;2023-02-28T07:37:56;15.10;;;10.47;;
1829;SDS011;914;48.118;11.600;2023-02-28T07:40:22;18.40;;;10.87;;
1829;SDS011;914;48.118;11.600;2023-02-28T07:42:48;12.17;;;8.87;;
1829;SDS011;914;48.118;11.600;2023-02-28T07:45:14;16.37;;;10.47;;
1829;SDS011;914;48.118;11.600;2023-02-28T07:47:40;15.30;;;11.20;;
1829;SDS011;914;48.118;11.600;2023-02-28T07:50:08;17.70;;;10.63;;
1829;SDS011;914;48.118;11.600;2023-02-28T07:52:36;16.40;;;12.03;;
1829;SDS011;914;48.118;11.600;2023-02-28T07:55:03;17.30;;;10.73;;
1829;SDS011;914;48.118;11.600;2023-02-28T07:57:30;17.47;;;10.80;;
1829;SDS011;914;48.118;11.600;2023-02-28T07:59:55;14.97;;;10.97;;
1829;SDS011;914;48.118;11.600;2023-02-28T08:02:21;15.77;;;10.57;;
1829;SDS011;914;48.118;11.600;2023-02-28T08:04:47;16.93;;;11.83;;
1829;SDS011;914;48.118;11.600;2023-02-28T08:07:13;14.33;;;10.27;;
1829;SDS011;914;48.118;11.600;2023-02-28T08:09:40;16.60;;;11.33;;
1829;SDS011;914;48.118;11.600;2023-02-28T08:12:07;14.50;;;10.70;;
1829;SDS011;914;48.118;11.600;2023-02-28T08:14:33;13.60;;;10.60;;
1829;SDS011;914;48.118;11.600;2023-02-28T08:16:59;16.80;;;11.00;;
1829;SDS011;914;48.118;11.600;2023-02-28T08:19:25;15.40;;;11.23;;
1829;SDS011;914;48.118;11.600;2023-02-28T08:21:51;15.40;;;11.53;;
1829;SDS011;914;48.118;11.600;2023-02-28T08:24:17;14.67;;;10.87;;
1829;SDS011;914;48.118;11.600;2023-02-28T08:26:42;14.20;;;11.20;;
1829;SDS011;914;48.118;11.600;2023-02-28T08:29:08;16.93;;;11.33;;
1829;SDS011;914;48.118;11.600;2023-02-28T08:31:34;15.47;;;11.03;;
1829;SDS011;914;48.118;11.600;2023-02-28T08:34:04;14.53;;;10.90;;
1829;SDS011;914;48.118;11.600;2023-02-28T08:36:32;15.70;;;11.47;;
1829;SDS011;914;48.118;11.600;2023-02-28T08:38:57;14.70;;;11.20;;
1829;SDS011;914;48.118;11.600;2023-02-28T08:41:24;12.63;;;10.03;;
1829;SDS011;914;48.118;11.600;2023-02-28T08:43:50;15.67;;;10.70;;
1829;SDS011;914;48.118;11.600;2023-02-28T08:46:16;12.47;;;9.40;;
1829;SDS011;914;48.118;11.600;2023-02-28T08:48:43;14.20;;;10.93;;
1829;SDS011;914;48.118;11.600;2023-02-28T08:51:10;15.60;;;11.97;;
1829;SDS011;914;48.118;11.600;2023-02-28T08:53:43;14.00;;;10.53;;
1829;SDS011;914;48.118;11.600;2023-02-28T08:56:14;18.03;;;10.90;;
1829;SDS011;914;48.118;11.600;2023-02-28T08:58:42;18.27;;;11.13;;
1829;SDS011;914;48.118;11.600;2023-02-28T09:03:37;13.33;;;11.00;;
1829;SDS011;914;48.118;11.600;2023-02-28T09:06:03;16.07;;;11.20;;
1829;SDS011;914;48.118;11.600;2023-02-28T09:08:30;10.80;;;8.93;;
1829;SDS011;914;48.118;11.600;2023-02-28T09:10:56;15.13;;;11.07;;
1829;SDS011;914;48.118;11.600;2023-02-28T09:13:26;18.67;;;11.97;;
1829;SDS011;914;48.118;11.600;2023-02-28T09:15:52;17.73;;;10.97;;
1829;SDS011;914;48.118;11.600;2023-02-28T09:18:19;13.80;;;11.00;;
1829;SDS011;914;48.118;11.600;2023-02-28T09:20:45;15.57;;;10.87;;
1829;SDS011;914;48.118;11.600;2023-02-28T09:23:11;14.67;;;10.50;;
1829;SDS011;914;48.118;11.600;2023-02-28T09:25:37;15.37;;;11.27;;
1829;SDS011;914;48.118;11.600;2023-02-28T09:28:10;14.90;;;11.40;;
1829;SDS011;914;48.118;11.600;2023-02-28T09:30:36;15.73;;;10.97;;
1829;SDS011;914;48.118;11.600;2023-02-28T09:33:02;15.27;;;11.43;;
1829;SDS011;914;48.118;11.600;2023-02-28T09:35:28;18.10;;;11.57;;
1829;SDS011;914;48.118;11.600;2023-02-28T09:37:55;16.13;;;11.33;;
1829;SDS011;914;48.118;11.600;2023-02-28T09:40:22;16.77;;;12.03;;
1829;SDS011;914;48.118;11.600;2023-02-28T09:42:51;17.73;;;10.80;;
1829;SDS011;914;48.118;11.600;2023-02-28T09:47:47;16.07;;;12.13;;
1829;SDS011;914;48.118;11.600;2023-02-28T09:50:33;17.70;;;11.73;;
1829;SDS011;914;48.118;11.600;2023-02-28T09:53:05;15.83;;;11.40;;
1829;SDS011;914;48.118;11.600;2023-02-28T09:55:42;13.57;;;10.97;;
1829;SDS011;914;48.118;11.600;2023-02-28T09:58:16;16.07;;;11.83;;
1829;SDS011;914;48.118;11.600;2023-02-28T10:01:11;15.87;;;11.67;;
1829;SDS011;914;48.118;11.600;2023-02-28T10:03:48;17.07;;;11.93;;
1829;SDS011;914;48.118;11.600;2023-02-28T10:06:29;15.70;;;11.33;;
1829;SDS011;914;48.118;11.600;2023-02-28T10:09:16;15.83;;;11.50;;
1829;SDS011;914;48.118;11.600;2023-02-28T10:11:50;15.07;;;11.27;;
1829;SDS011;914;48.118;11.600;2023-02-28T10:14:28;15.33;;;11.60;;
1829;SDS011;914;48.118;11.600;2023-02-28T10:17:04;15.57;;;11.43;;
1829;SDS011;914;48.118;11.600;2023-02-28T10:22:37;14.00;;;10.83;;
1829;SDS011;914;48.118;11.600;2023-02-28T10:25:20;13.43;;;11.00;;
1829;SDS011;914;48.118;11.600;2023-02-28T10:27:57;16.57;;;11.00;;
1829;SDS011;914;48.118;11.600;2023-02-28T10:30:26;15.47;;;11.93;;
1829;SDS011;914;48.118;11.600;2023-02-28T10:32:52;15.83;;;11.10;;
1829;SDS011;914;48.118;11.600;2023-02-28T10:35:23;18.77;;;11.63;;
1829;SDS011;914;48.118;11.600;2023-02-28T10:37:53;13.10;;;10.70;;
1829;SDS011;914;48.118;11.600;2023-02-28T10:42:56;17.80;;;11.30;;
1829;SDS011;914;48.118;11.600;2023-02-28T10:45:25;18.00;;;11.90;;
1829;SDS011;914;48.118;11.600;2023-02-28T10:48:00;17.00;;;10.93;;
1829;SDS011;914;48.118;11.600;2023-02-28T10:56:00;14.27;;;11.33;;
1829;SDS011;914;48.118;11.600;2023-02-28T10:58:46;15.50;;;10.57;;
1829;SDS011;914;48.118;11.600;2023-02-28T11:01:23;17.73;;;11.47;;
1829;SDS011;914;48.118;11.600;2023-02-28T11:03:59;14.27;;;10.30;;
1829;SDS011;914;48.118;11.600;2023-02-28T11:06:32;14.53;;;11.37;;
1829;SDS011;914;48.118;11.600;2023-02-28T11:09:00;15.50;;;11.27;;
1829;SDS011;914;48.118;11.600;2023-02-28T11:11:30;13.50;;;10.90;;
1829;SDS011;914;48.118;11.600;2023-02-28T11:14:14;18.63;;;10.77;;
1829;SDS011;914;48.118;11.600;2023-02-28T11:16:45;12.33;;;10.87;;
1829;SDS011;914;48.118;11.600;2023-02-28T11:19:46;18.13;;;11.53;;
1829;SDS011;914;48.118;11.600;2023-02-28T11:22:06;15.33;;;11.30;;
1829;SDS011;914;48.118;11.600;2023-02-28T11:24:36;14.13;;;11.23;;
1829;SDS011;914;48.118;11.600;2023-02-28T11:29:56;12.30;;;10.67;;
1829;SDS011;914;48.118;11.600;2023-02-28T11:32:23;15.33;;;11.30;;
1829;SDS011;914;48.118;11.600;2023-02-28T11:37:41;13.30;;;10.30;;
1829;SDS011;914;48.118;11.600;2023-02-28T11:40:14;15.33;;;10.90;;
1829;SDS011;914;48.118;11.600;2023-02-28T11:42:57;12.00;;;9.80;;
1829;SDS011;914;48.118;11.600;2023-02-28T11:45:54;11.37;;;9.70;;
1829;SDS011;914;48.118;11.600;2023-02-28T11:59:12;11.43;;;10.03;;
1829;SDS011;914;48.118;11.600;2023-02-28T12:02:02;14.90;;;10.57;;
1829;SDS011;914;48.118;11.600;2023-02-28T12:04:44;13.60;;;10.13;;
1829;SDS011;914;48.118;11.600;2023-02-28T12:10:27;14.27;;;10.23;;
1829;SDS011;914;48.118;11.600;2023-02-28T12:18:20;13.17;;;9.60;;
1829;SDS011;914;48.118;11.600;2023-02-28T12:26:14;12.67;;;9.90;;
1829;SDS011;914;48.118;11.600;2023-02-28T12:29:01;13.30;;;10.57;;
1829;SDS011;914;48.118;11.600;2023-02-28T12:31:49;11.17;;;9.07;;
1829;SDS011;914;48.118;11.600;2023-02-28T12:34:43;11.13;;;9.47;;
1829;SDS011;914;48.118;11.600;2023-02-28T12:37:14;9.93;;;8.77;;
1829;SDS011;914;48.118;11.600;2023-02-28T12:39:56;12.03;;;8.60;;
1829;SDS011;914;48.118;11.600;2023-02-28T12:42:31;9.10;;;8.20;;
1829;SDS011;914;48.118;11.600;2023-02-28T12:45:19;9.60;;;8.60;;
1829;SDS011;914;48.118;11.600;2023-02-28T12:47:52;11.30;;;8.50;;
1829;SDS011;914;48.118;11.600;2023-02-28T12:50:22;11.50;;;9.13;;
1829;SDS011;914;48.118;11.600;2023-02-28T12:55:23;16.67;;;9.30;;
1829;SDS011;914;48.118;11.600;2023-02-28T13:00:40;9.83;;;8.47;;
1829;SDS011;914;48.118;11.600;2023-02-28T13:03:33;10.97;;;9.23;;
1829;SDS011;914;48.118;11.600;2023-02-28T13:06:17;11.93;;;8.20;;
1829;SDS011;914;48.118;11.600;2023-02-28T13:11:50;10.30;;;8.77;;
1829;SDS011;914;48.118;11.600;2023-02-28T13:19:46;15.43;;;9.30;;
1829;SDS011;914;48.118;11.600;2023-02-28T13:24:54;18.00;;;9.77;;
1829;SDS011;914;48.118;11.600;2023-02-28T13:29:50;12.40;;;8.53;;
1829;SDS011;914;48.118;11.600;2023-02-28T13:35:12;13.77;;;9.43;;
1829;SDS011;914;48.118;11.600;2023-02-28T13:37:33;11.97;;;9.03;;
1829;SDS011;914;48.118;11.600;2023-02-28T13:42:36;9.83;;;8.70;;
1829;SDS011;914;48.118;11.600;2023-02-28T13:45:22;12.60;;;8.90;;
1829;SDS011;914;48.118;11.600;2023-02-28T13:47:59;10.60;;;8.63;;
1829;SDS011;914;48.118;11.600;2023-02-28T13:50:32;15.40;;;8.97;;
1829;SDS011;914;48.118;11.600;2023-02-28T13:55:37;10.97;;;8.07;;
1829;SDS011;914;48.118;11.600;2023-02-28T13:58:43;11.57;;;8.00;;
1829;SDS011;914;48.118;11.600;2023-02-28T14:06:51;13.23;;;9.10;;
1829;SDS011;914;48.118;11.600;2023-02-28T14:09:30;10.13;;;9.00;;
1829;SDS011;914;48.118;11.600;2023-02-28T14:15:04;16.07;;;9.53;;
1829;SDS011;914;48.118;11.600;2023-02-28T14:17:53;12.33;;;9.47;;
1829;SDS011;914;48.118;11.600;2023-02-28T14:20:21;9.60;;;8.67;;
1829;SDS011;914;48.118;11.600;2023-02-28T14:28:47;12.37;;;8.27;;
1829;SDS011;914;48.118;11.600;2023-02-28T14:31:48;11.33;;;8.70;;
1829;SDS011;914;48.118;11.600;2023-02-28T14:34:41;10.13;;;7.90;;
1829;SDS011;914;48.118;11.600;2023-02-28T14:37:16;10.77;;;8.70;;
1829;SDS011;914;48.118;11.600;2023-02-28T14:39:47;9.57;;;8.37;;
1829;SDS011;914;48.118;11.600;2023-02-28T14:45:25;11.67;;;8.47;;
1829;SDS011;914;48.118;11.600;2023-02-28T14:47:54;11.90;;;8.47;;
1829;SDS011;914;48.118;11.600;2023-02-28T14:50:22;9.37;;;8.13;;
1829;SDS011;914;48.118;11.600;2023-02-28T14:52:52;10.50;;;8.17;;
1829;SDS011;914;48.118;11.600;2023-02-28T14:55:22;11.43;;;8.37;;
1829;SDS011;914;48.118;11.600;2023-02-28T14:58:04;10.67;;;8.37;;
1829;SDS011;914;48.118;11.600;2023-02-28T15:00:35;11.60;;;8.03;;
1829;SDS011;914;48.118;11.600;2023-02-28T15:06:00;11.00;;;8.27;;
1829;SDS011;914;48.118;11.600;2023-02-28T15:08:28;10.40;;;7.73;;
1829;SDS011;914;48.118;11.600;2023-02-28T15:11:21;11.40;;;8.37;;
1829;SDS011;914;48.118;11.600;2023-02-28T15:13:51;10.97;;;8.70;;
1829;SDS011;914;48.118;11.600;2023-02-28T15:16:21;10.77;;;8.17;;
1829;SDS011;914;48.118;11.600;2023-02-28T15:18:51;10.40;;;7.97;;
1829;SDS011;914;48.118;11.600;2023-02-28T15:21:23;14.93;;;8.23;;
1829;SDS011;914;48.118;11.600;2023-02-28T15:26:58;9.10;;;7.87;;
1829;SDS011;914;48.118;11.600;2023-02-28T15:29:28;11.50;;;8.80;;
1829;SDS011;914;48.118;11.600;2023-02-28T15:32:01;9.30;;;7.93;;
1829;SDS011;914;48.118;11.600;2023-02-28T15:34:35;11.03;;;8.30;;
1829;SDS011;914;48.118;11.600;2023-02-28T15:37:01;14.13;;;8.47;;
1829;SDS011;914;48.118;11.600;2023-02-28T15:39:31;12.57;;;8.03;;
1829;SDS011;914;48.118;11.600;2023-02-28T15:42:18;10.83;;;8.40;;
1829;SDS011;914;48.118;11.600;2023-02-28T15:44:45;10.00;;;7.97;;
1829;SDS011;914;48.118;11.600;2023-02-28T15:47:16;9.20;;;8.00;;
1829;SDS011;914;48.118;11.600;2023-02-28T15:49:57;12.07;;;8.50;;
1829;SDS011;914;48.118;11.600;2023-02-28T15:55:08;12.90;;;8.70;;
1829;SDS011;914;48.118;11.600;2023-02-28T15:57:55;11.47;;;8.43;;
1829;SDS011;914;48.118;11.600;2023-02-28T16:00:26;16.63;;;8.83;;
1829;SDS011;914;48.118;11.600;2023-02-28T16:02:58;13.80;;;8.50;;
1829;SDS011;914;48.118;11.600;2023-02-28T16:08:12;11.27;;;8.60;;
1829;SDS011;914;48.118;11.600;2023-02-28T16:10:40;12.20;;;8.63;;
1829;SDS011;914;48.118;11.600;2023-02-28T16:13:06;14.37;;;9.47;;
1829;SDS011;914;48.118;11.600;2023-02-28T16:15:38;11.30;;;9.50;;
1829;SDS011;914;48.118;11.600;2023-02-28T16:18:08;13.67;;;9.23;;
1829;SDS011;914;48.118;11.600;2023-02-28T16:20:38;10.67;;;8.80;;
1829;SDS011;914;48.118;11.600;2023-02-28T16:23:04;10.37;;;8.07;;
1829;SDS011;914;48.118;11.600;2023-02-28T16:25:34;12.43;;;9.17;;
1829;SDS011;914;48.118;11.600;2023-02-28T16:28:02;10.97;;;8.87;;
1829;SDS011;914;48.118;11.600;2023-02-28T16:30:29;9.90;;;8.33;;
1829;SDS011;914;48.118;11.600;2023-02-28T16:32:58;13.47;;;8.37;;
1829;SDS011;914;48.118;11.600;2023-02-28T16:35:24;11.23;;;8.90;;
1829;SDS011;914;48.118;11.600;2023-02-28T16:37:52;12.43;;;9.00;;
1829;SDS011;914;48.118;11.600;2023-02-28T16:40:21;12.17;;;9.00;;
1829;SDS011;914;48.118;11.600;2023-02-28T16:42:51;12.83;;;8.50;;
1829;SDS011;914;48.118;11.600;2023-02-28T16:45:23;12.20;;;9.47;;
1829;SDS011;914;48.118;11.600;2023-02-28T16:47:52;14.20;;;9.33;;
1829;SDS011;914;48.118;11.600;2023-02-28T16:50:19;14.73;;;9.57;;
1829;SDS011;914;48.118;11.600;2023-02-28T16:52:47;11.83;;;9.37;;
1829;SDS011;914;48.118;11.600;2023-02-28T16:55:14;16.67;;;9.63;;
1829;SDS011;914;48.118;11.600;2023-02-28T16:57:42;14.87;;;9.87;;
1829;SDS011;914;48.118;11.600;2023-02-28T17:00:11;16.80;;;9.10;;
1829;SDS011;914;48.118;11.600;2023-02-28T17:02:38;14.70;;;10.00;;
1829;SDS011;914;48.118;11.600;2023-02-28T17:05:04;12.57;;;9.27;;
1829;SDS011;914;48.118;11.600;2023-02-28T17:07:31;13.20;;;9.87;;
1829;SDS011;914;48.118;11.600;2023-02-28T17:09:57;12.63;;;10.07;;
1829;SDS011;914;48.118;11.600;2023-02-28T17:12:24;15.53;;;10.23;;
1829;SDS011;914;48.118;11.600;2023-02-28T17:14:49;20.03;;;10.40;;
1829;SDS011;914;48.118;11.600;2023-02-28T17:17:17;15.57;;;10.27;;
1829;SDS011;914;48.118;11.600;2023-02-28T17:19:45;13.57;;;9.33;;
1829;SDS011;914;48.118;11.600;2023-02-28T17:22:11;15.97;;;10.03;;
1829;SDS011;914;48.118;11.600;2023-02-28T17:24:37;17.57;;;10.47;;
1829;SDS011;914;48.118;11.600;2023-02-28T17:27:03;12.70;;;10.13;;
1829;SDS011;914;48.118;11.600;2023-02-28T17:29:33;16.47;;;10.27;;
1829;SDS011;914;48.118;11.600;2023-02-28T17:32:00;12.80;;;10.13;;